Charlotte, Vermont
Current Conditions -  °F | °C
As of 8:54 PM on Saturday 20 Dec 2014 (Local Time) from KBTV Reporting Station
Overcast Overcast  
Wind Chill: 17°   Ceiling: 600
Heat Index: 17°   Visibility: 9mi
Dew Point: 13°   Wind: 0mph
Humidity: 84%   Direction: NA
Pressure: 30.33"   Gusts: NA
Location:  44.31°N, 73.26°W
Report Text: KBTV 210154Z 00000KT 9SM BKN006 OVC010 M08/M11 A3033 RMK AO2 SLP278 T10831106
Loading
Personal Weather Stations






























Interactive Weather Map New forecast layout! Learn more

10-Day Weather Forecast

Advertisements
Track Severe Weather on mobile